Time;durP1;ratioP1;P1;durP2;ratioP2;P2;SDS_P1;SDS_P2;PMS_P1;PMS_P2;Temp;Humidity;BMP_temperature;BMP_pressure;BME280_temperature;BME280_humidity;BME280_pressure;Samples;Min_cycle;Max_cycle;Signal;HPM_P1;HPM_P2
2024/04/21 00:00:39;;;;;;;2.33;0.30;;;4.30;99.90;;;;;;5365695;26;20000;-79
2024/04/21 00:03:05;;;;;;;4.80;0.47;;;4.20;99.90;;;;;;5370354;26;20015;-80
2024/04/21 00:05:31;;;;;;;4.10;0.30;;;4.20;99.90;;;;;;5378751;26;20000;-80
2024/04/21 00:07:56;;;;;;;5.88;0.30;;;4.10;99.90;;;;;;5370073;26;20457;-79
2024/04/21 00:10:22;;;;;;;3.05;0.40;;;4.10;99.90;;;;;;5348781;26;20001;-80
2024/04/21 00:12:48;;;;;;;4.32;0.57;;;4.20;99.90;;;;;;5361675;26;20004;-79
2024/04/21 00:15:13;;;;;;;6.10;0.30;;;4.20;99.90;;;;;;5360558;26;20444;-78
2024/04/21 00:17:39;;;;;;;11.98;0.70;;;4.30;99.90;;;;;;5380476;26;20012;-79
2024/04/21 00:20:05;;;;;;;3.20;0.30;;;4.30;99.90;;;;;;5378576;26;20022;-79
2024/04/21 00:22:30;;;;;;;6.28;0.40;;;4.40;99.90;;;;;;5369637;26;20428;-80
2024/04/21 00:24:56;;;;;;;5.95;0.45;;;4.50;99.90;;;;;;5365895;26;20008;-80
2024/04/21 00:27:21;;;;;;;4.80;0.50;;;4.50;99.90;;;;;;5375309;26;20343;-79
2024/04/21 00:29:47;;;;;;;8.75;0.68;;;4.50;99.90;;;;;;5375709;26;20061;-80
2024/04/21 00:32:13;;;;;;;9.70;0.55;;;4.50;99.90;;;;;;5367814;26;20019;-79
2024/04/21 00:34:38;;;;;;;9.00;0.82;;;4.50;99.90;;;;;;5378636;26;20000;-79
2024/04/21 00:37:04;;;;;;;6.28;0.50;;;4.40;99.90;;;;;;5382829;26;20004;-79
2024/04/21 00:39:30;;;;;;;10.40;0.93;;;4.40;99.90;;;;;;5378376;26;20340;-80
2024/04/21 00:41:55;;;;;;;6.80;0.40;;;4.40;99.90;;;;;;5361600;26;20347;-80
2024/04/21 00:44:21;;;;;;;8.50;0.60;;;4.30;99.90;;;;;;5381289;26;20012;-80
2024/04/21 00:46:46;;;;;;;10.63;0.88;;;4.40;99.90;;;;;;5381921;26;20015;-80
2024/04/21 00:49:13;;;;;;;4.72;0.65;;;4.30;99.90;;;;;;5357312;26;20008;-79
2024/04/21 00:51:39;;;;;;;6.70;0.38;;;4.30;99.90;;;;;;5366273;26;19997;-79
2024/04/21 00:54:06;;;;;;;4.90;0.30;;;4.20;99.90;;;;;;5371301;26;20001;-80
2024/04/21 00:56:32;;;;;;;5.07;0.30;;;4.20;99.90;;;;;;5368012;26;20538;-80
2024/04/21 00:59:00;;;;;;;4.25;0.30;;;4.10;99.90;;;;;;5380861;26;20004;-81
2024/04/21 01:01:25;;;;;;;4.07;0.22;;;4.00;99.90;;;;;;5371916;26;20004;-80
2024/04/21 01:03:52;;;;;;;3.70;0.30;;;3.90;99.90;;;;;;5354257;26;20016;-80
2024/04/21 01:06:18;;;;;;;8.27;1.10;;;3.80;99.90;;;;;;5366709;26;20074;-80
2024/04/21 01:08:45;;;;;;;5.25;0.47;;;3.70;99.90;;;;;;5372452;26;19997;-80
2024/04/21 01:11:21;;;;;;;6.10;0.17;;;3.60;99.90;;;;;;5373998;26;20012;-79
2024/04/21 01:13:46;;;;;;;8.50;0.30;;;3.50;99.90;;;;;;5375695;26;19996;-79
2024/04/21 01:16:13;;;;;;;4.40;0.30;;;3.50;99.90;;;;;;5379938;26;20008;-80
2024/04/21 01:18:40;;;;;;;3.15;0.30;;;3.40;99.90;;;;;;5371862;26;20420;-80
2024/04/21 01:21:05;;;;;;;5.07;0.85;;;3.50;99.90;;;;;;5380175;26;20004;-80
2024/04/21 01:23:31;;;;;;;9.18;0.60;;;3.50;99.90;;;;;;5378633;26;20385;-80
2024/04/21 01:25:56;;;;;;;5.93;0.35;;;3.50;99.90;;;;;;5369909;26;20459;-80
2024/04/21 01:28:22;;;;;;;5.50;0.30;;;3.60;99.90;;;;;;5359375;26;20001;-80
2024/04/21 01:30:48;;;;;;;9.35;0.43;;;3.60;99.90;;;;;;5355827;26;20015;-80
2024/04/21 01:33:13;;;;;;;4.60;0.35;;;3.70;99.90;;;;;;5368056;26;20078;-78
2024/04/21 01:35:42;;;;;;;6.70;0.30;;;3.70;99.90;;;;;;5366640;26;20005;-79
2024/04/21 01:38:07;;;;;;;7.13;0.60;;;3.70;99.90;;;;;;5368164;26;20008;-79
2024/04/21 01:40:33;;;;;;;6.65;0.80;;;3.70;99.90;;;;;;5369464;26;20075;-80
2024/04/21 01:42:59;;;;;;;5.32;0.30;;;3.60;99.90;;;;;;5351978;26;20007;-80
2024/04/21 01:45:24;;;;;;;6.65;0.70;;;3.50;99.90;;;;;;5381451;26;19996;-80
2024/04/21 01:47:50;;;;;;;5.22;0.60;;;3.30;99.90;;;;;;5374362;26;20373;-79
2024/04/21 01:50:16;;;;;;;8.85;0.30;;;3.30;99.90;;;;;;5378960;26;20003;-80
2024/04/21 01:52:41;;;;;;;9.35;0.50;;;3.20;99.90;;;;;;5364654;26;19997;-80
2024/04/21 01:55:07;;;;;;;4.93;0.40;;;3.10;99.90;;;;;;5378215;26;20000;-80
2024/04/21 01:57:34;;;;;;;4.88;0.60;;;3.00;99.90;;;;;;5367891;26;19996;-79
2024/04/21 01:59:59;;;;;;;7.93;0.38;;;3.00;99.90;;;;;;5379584;26;20000;-79
2024/04/21 02:02:25;;;;;;;8.00;0.38;;;2.90;99.90;;;;;;5368174;26;20068;-80
2024/04/21 02:04:50;;;;;;;8.82;0.55;;;2.90;99.90;;;;;;5356529;26;20001;-80
2024/04/21 02:07:16;;;;;;;8.48;0.75;;;2.90;99.90;;;;;;5359760;26;20001;-80
2024/04/21 02:09:42;;;;;;;5.38;0.40;;;2.80;99.90;;;;;;5376292;26;20007;-80
2024/04/21 02:12:08;;;;;;;7.93;0.50;;;2.80;99.90;;;;;;5367240;26;19999;-80
2024/04/21 02:14:33;;;;;;;9.10;0.45;;;2.90;99.90;;;;;;5352754;26;20004;-79
2024/04/21 02:17:00;;;;;;;5.78;0.38;;;2.80;99.90;;;;;;5368637;26;20036;-79
2024/04/21 02:19:25;;;;;;;5.88;0.40;;;2.80;99.90;;;;;;5375019;26;20016;-80
2024/04/21 02:21:51;;;;;;;7.95;0.40;;;2.70;99.90;;;;;;5378956;26;20400;-80
2024/04/21 02:24:16;;;;;;;9.32;0.32;;;2.70;99.90;;;;;;5352027;26;20004;-79
2024/04/21 02:26:42;;;;;;;12.70;0.40;;;2.70;99.90;;;;;;5365054;26;20065;-80
2024/04/21 02:29:07;;;;;;;4.05;0.32;;;2.70;99.90;;;;;;5379811;26;20000;-79
2024/04/21 02:31:33;;;;;;;6.00;0.20;;;2.70;99.90;;;;;;5362091;26;20005;-80
2024/04/21 02:33:58;;;;;;;5.85;0.60;;;2.80;99.90;;;;;;5366968;26;20009;-79
2024/04/21 02:36:24;;;;;;;4.50;0.55;;;2.80;99.90;;;;;;5370318;26;20004;-80
2024/04/21 02:38:50;;;;;;;8.02;0.63;;;2.90;99.90;;;;;;5370835;26;20441;-80
2024/04/21 02:41:15;;;;;;;3.53;0.82;;;2.90;99.90;;;;;;5370742;26;20000;-80
2024/04/21 02:43:41;;;;;;;5.28;0.50;;;3.00;99.90;;;;;;5365631;26;20101;-79
2024/04/21 02:46:06;;;;;;;6.85;0.60;;;3.10;99.90;;;;;;5362196;26;20001;-80
2024/04/21 02:48:32;;;;;;;15.07;0.80;;;3.20;99.90;;;;;;5372226;26;20476;-80
2024/04/21 02:50:59;;;;;;;9.05;0.77;;;3.30;99.90;;;;;;5365735;26;19997;-80
2024/04/21 02:53:25;;;;;;;8.27;1.02;;;3.40;99.90;;;;;;5374159;26;20032;-80
2024/04/21 02:55:51;;;;;;;6.93;0.65;;;3.50;99.90;;;;;;5362901;26;20001;-79
2024/04/21 02:58:17;;;;;;;10.82;0.60;;;3.50;99.90;;;;;;5364250;26;20012;-80
2024/04/21 03:00:43;;;;;;;6.40;0.60;;;3.60;99.90;;;;;;5361407;26;20001;-80
2024/04/21 03:03:09;;;;;;;8.38;1.08;;;3.60;99.90;;;;;;5368108;26;20074;-80
2024/04/21 03:05:34;;;;;;;9.18;0.80;;;3.70;99.90;;;;;;5353876;26;20005;-80
2024/04/21 03:08:00;;;;;;;17.73;0.82;;;3.70;99.90;;;;;;5372990;26;20001;-81
2024/04/21 03:10:27;;;;;;;14.18;1.58;;;3.80;99.90;;;;;;5370603;26;20004;-80
2024/04/21 03:12:52;;;;;;;12.88;0.80;;;3.80;99.90;;;;;;5355222;26;20073;-81
2024/04/21 03:15:18;;;;;;;5.43;0.60;;;3.90;99.90;;;;;;5375564;26;20012;-80
2024/04/21 03:17:44;;;;;;;10.10;0.73;;;3.90;99.90;;;;;;5377221;26;20008;-80
2024/04/21 03:20:10;;;;;;;12.25;0.82;;;4.00;99.90;;;;;;5371056;26;20024;-79
2024/04/21 03:22:35;;;;;;;12.73;0.88;;;4.00;99.90;;;;;;5365268;26;20000;-80
2024/04/21 03:25:01;;;;;;;10.38;0.70;;;4.00;99.90;;;;;;5374503;26;20019;-80
2024/04/21 03:27:27;;;;;;;5.72;0.50;;;4.10;99.90;;;;;;5365365;26;20094;-80
2024/04/21 03:29:52;;;;;;;6.65;0.55;;;4.10;99.90;;;;;;5376978;26;20054;-80
2024/04/21 03:32:18;;;;;;;13.82;1.00;;;4.10;99.90;;;;;;5356869;26;20015;-79
2024/04/21 03:34:53;;;;;;;14.52;0.70;;;4.00;99.90;;;;;;5358461;26;19992;-80
2024/04/21 03:37:21;;;;;;;13.35;0.98;;;4.00;99.90;;;;;;5374885;26;19996;-80
2024/04/21 03:39:47;;;;;;;14.70;1.30;;;4.00;99.90;;;;;;5372329;26;19996;-80
2024/04/21 03:42:13;;;;;;;11.73;1.13;;;4.00;99.90;;;;;;5368429;26;20004;-81
2024/04/21 03:44:38;;;;;;;13.05;1.50;;;4.00;99.90;;;;;;5353720;26;20005;-80
2024/04/21 03:47:04;;;;;;;8.13;0.63;;;3.90;99.90;;;;;;5351498;26;20433;-80
2024/04/21 03:49:29;;;;;;;9.27;0.93;;;3.90;99.90;;;;;;5357135;26;20005;-80
2024/04/21 03:51:55;;;;;;;8.60;0.50;;;3.90;99.90;;;;;;5352493;26;20178;-80
2024/04/21 03:54:20;;;;;;;8.23;0.50;;;3.80;99.90;;;;;;5370793;26;20008;-81
2024/04/21 03:56:46;;;;;;;2.67;0.30;;;3.80;99.90;;;;;;5359637;26;20001;-80
2024/04/21 03:59:12;;;;;;;10.40;0.43;;;3.70;99.90;;;;;;5359011;26;20070;-80
2024/04/21 04:01:37;;;;;;;7.30;0.70;;;3.70;99.90;;;;;;5355039;26;20005;-80
2024/04/21 04:04:03;;;;;;;6.32;0.57;;;3.60;99.90;;;;;;5363178;26;19996;-81
2024/04/21 04:06:29;;;;;;;8.35;0.50;;;3.60;99.90;;;;;;5361987;26;20436;-80
2024/04/21 04:08:58;;;;;;;6.38;0.75;;;3.50;99.90;;;;;;5371518;26;19997;-80
2024/04/21 04:11:23;;;;;;;4.72;0.40;;;3.40;99.90;;;;;;5358326;26;20000;-80
2024/04/21 04:13:49;;;;;;;6.75;0.77;;;3.40;99.90;;;;;;5370973;26;20004;-80
2024/04/21 04:16:14;;;;;;;6.57;0.43;;;3.40;99.90;;;;;;5376845;26;20008;-80
2024/04/21 04:18:40;;;;;;;3.75;0.50;;;3.40;99.90;;;;;;5372499;26;20015;-80
2024/04/21 04:21:06;;;;;;;9.02;0.50;;;3.40;99.90;;;;;;5378541;26;20008;-80
2024/04/21 04:23:32;;;;;;;8.20;0.40;;;3.30;99.90;;;;;;5366227;26;20015;-80
2024/04/21 04:25:57;;;;;;;4.10;0.30;;;3.30;99.90;;;;;;5363615;26;19993;-80
2024/04/21 04:28:25;;;;;;;6.60;0.50;;;3.30;99.90;;;;;;5373189;26;20333;-80
2024/04/21 04:30:50;;;;;;;13.25;1.33;;;3.30;99.90;;;;;;5362396;26;20031;-81
2024/04/21 04:33:16;;;;;;;8.23;1.48;;;3.30;99.90;;;;;;5376251;26;20047;-80
2024/04/21 04:35:42;;;;;;;4.70;0.45;;;3.30;99.90;;;;;;5352929;26;20106;-80
2024/04/21 04:38:07;;;;;;;8.18;0.50;;;3.40;99.90;;;;;;5367327;26;20019;-80
2024/04/21 04:40:33;;;;;;;6.95;0.32;;;3.40;99.90;;;;;;5366612;26;19997;-80
2024/04/21 04:42:59;;;;;;;7.50;0.40;;;3.40;99.90;;;;;;5375014;26;20000;-80
2024/04/21 04:45:24;;;;;;;7.50;0.40;;;3.40;99.90;;;;;;5372206;26;20015;-81
2024/04/21 04:47:50;;;;;;;6.22;0.30;;;3.50;99.90;;;;;;5367409;26;20016;-80
2024/04/21 04:50:16;;;;;;;8.82;0.40;;;3.50;99.90;;;;;;5366146;26;20008;-80
2024/04/21 04:52:41;;;;;;;6.30;0.30;;;3.60;99.90;;;;;;5354333;26;20012;-81
2024/04/21 04:55:07;;;;;;;5.53;0.63;;;3.60;99.90;;;;;;5374848;26;20015;-81
2024/04/21 04:57:32;;;;;;;1.55;0.20;;;3.70;99.90;;;;;;5363467;26;20016;-80
2024/04/21 04:59:58;;;;;;;6.15;0.40;;;3.70;99.90;;;;;;5367862;26;19996;-80
2024/04/21 05:02:24;;;;;;;2.78;0.32;;;3.80;99.90;;;;;;5380998;26;20068;-80
2024/04/21 05:04:50;;;;;;;4.82;0.20;;;3.80;99.90;;;;;;5382846;26;20018;-81
2024/04/21 05:07:15;;;;;;;6.97;0.38;;;3.90;99.90;;;;;;5369921;26;20012;-81
2024/04/21 05:09:41;;;;;;;3.65;0.32;;;3.90;99.90;;;;;;5373488;26;20008;-82
2024/04/21 05:12:07;;;;;;;3.03;0.50;;;4.00;99.90;;;;;;5382395;26;20007;-81
2024/04/21 05:14:32;;;;;;;3.47;0.35;;;4.00;99.90;;;;;;5369969;26;20014;-81
2024/04/21 05:16:58;;;;;;;5.22;0.32;;;4.00;99.90;;;;;;5365841;26;20048;-82
2024/04/21 05:19:23;;;;;;;3.53;0.30;;;4.10;99.90;;;;;;5359134;26;20358;-82
2024/04/21 05:21:49;;;;;;;4.50;0.32;;;4.10;99.90;;;;;;5367758;26;20078;-82
2024/04/21 05:24:14;;;;;;;3.67;0.30;;;4.20;99.90;;;;;;5362082;26;20000;-81
2024/04/21 05:26:40;;;;;;;2.70;0.40;;;4.20;99.90;;;;;;5377071;26;20008;-82
2024/04/21 05:29:06;;;;;;;2.10;0.30;;;4.20;99.90;;;;;;5376611;26;20012;-81
2024/04/21 05:31:31;;;;;;;4.28;0.30;;;4.20;99.90;;;;;;5353451;26;20055;-82
2024/04/21 05:33:57;;;;;;;2.47;0.52;;;4.30;99.90;;;;;;5371070;26;20529;-82
2024/04/21 05:36:22;;;;;;;2.08;0.20;;;4.30;99.90;;;;;;5378496;26;20381;-82
2024/04/21 05:38:51;;;;;;;6.60;0.45;;;4.30;99.90;;;;;;5372378;26;20000;-82
2024/04/21 05:41:16;;;;;;;0.60;0.10;;;4.40;99.90;;;;;;5372999;26;20001;-81
2024/04/21 05:43:42;;;;;;;1.40;0.30;;;4.40;99.90;;;;;;5375278;26;19996;-81
2024/04/21 05:46:07;;;;;;;1.70;0.20;;;4.50;99.90;;;;;;5375480;26;20015;-81
2024/04/21 05:48:33;;;;;;;4.30;0.22;;;4.50;99.90;;;;;;5363152;26;20417;-81
2024/04/21 05:50:58;;;;;;;2.63;0.30;;;4.50;99.90;;;;;;5373591;26;20008;-81
2024/04/21 05:53:24;;;;;;;2.13;0.30;;;4.50;99.90;;;;;;5380529;26;20472;-81
2024/04/21 05:55:50;;;;;;;3.15;0.30;;;4.60;99.90;;;;;;5371979;26;20354;-81
2024/04/21 05:58:15;;;;;;;3.25;0.30;;;4.70;99.90;;;;;;5379230;26;20000;-82
2024/04/21 06:00:41;;;;;;;1.65;0.30;;;4.70;99.90;;;;;;5355119;26;20046;-81
2024/04/21 06:03:06;;;;;;;2.65;0.40;;;4.70;99.90;;;;;;5369810;26;20286;-81
2024/04/21 06:05:32;;;;;;;2.55;0.20;;;4.70;99.90;;;;;;5367247;26;20019;-81
2024/04/21 06:07:58;;;;;;;1.15;0.20;;;4.70;99.90;;;;;;5364469;26;20011;-81
2024/04/21 06:10:24;;;;;;;1.98;0.30;;;4.70;99.90;;;;;;5378808;26;20001;-81
2024/04/21 06:12:53;;;;;;;1.90;0.40;;;4.70;99.90;;;;;;5366323;26;19997;-81
2024/04/21 06:15:19;;;;;;;4.63;0.30;;;4.70;99.90;;;;;;5365640;26;20022;-81
2024/04/21 06:17:45;;;;;;;4.80;0.40;;;4.70;99.90;;;;;;5370432;26;20007;-81
2024/04/21 06:20:11;;;;;;;3.63;0.45;;;4.70;99.90;;;;;;5375524;26;20012;-81
2024/04/21 06:22:37;;;;;;;4.80;1.45;;;4.70;99.90;;;;;;5365816;26;20456;-81
2024/04/21 06:25:03;;;;;;;3.35;0.90;;;4.80;99.90;;;;;;5371531;26;20011;-81
2024/04/21 06:27:29;;;;;;;6.03;0.60;;;4.90;99.90;;;;;;5361081;26;20089;-81
2024/04/21 06:29:57;;;;;;;2.78;0.40;;;5.00;99.90;;;;;;5372897;26;20000;-83
2024/04/21 06:32:22;;;;;;;1.92;0.30;;;5.20;99.90;;;;;;5368220;26;20384;-81
2024/04/21 06:34:48;;;;;;;4.30;0.50;;;5.20;99.90;;;;;;5374265;26;20001;-81
2024/04/21 06:37:13;;;;;;;6.40;0.98;;;5.30;99.90;;;;;;5360125;26;19996;-81
2024/04/21 06:39:39;;;;;;;4.07;0.30;;;5.30;99.90;;;;;;5362528;26;20001;-81
2024/04/21 06:42:04;;;;;;;1.92;0.40;;;5.30;99.90;;;;;;5365632;26;20000;-81
2024/04/21 06:44:30;;;;;;;5.28;0.30;;;5.30;99.90;;;;;;5364614;26;19997;-81
2024/04/21 06:46:56;;;;;;;5.13;0.40;;;5.20;99.90;;;;;;5358321;26;20053;-81
2024/04/21 06:49:21;;;;;;;2.60;0.45;;;5.20;99.90;;;;;;5359103;26;20001;-82
2024/04/21 06:51:47;;;;;;;1.85;0.50;;;5.10;99.90;;;;;;5377904;26;20007;-82
2024/04/21 06:54:14;;;;;;;2.15;0.40;;;5.20;99.90;;;;;;5350860;26;19996;-81
2024/04/21 06:56:39;;;;;;;2.08;0.52;;;5.20;99.90;;;;;;5367717;26;20004;-81
2024/04/21 06:59:05;;;;;;;4.65;0.88;;;5.30;99.90;;;;;;5375942;26;20344;-81
2024/04/21 07:01:30;;;;;;;4.72;0.85;;;5.40;99.90;;;;;;5375217;26;20000;-82
2024/04/21 07:03:56;;;;;;;3.83;0.50;;;5.50;99.90;;;;;;5351361;26;20391;-82
2024/04/21 07:06:21;;;;;;;1.85;0.20;;;5.60;99.90;;;;;;5353019;26;20018;-82
2024/04/21 07:08:47;;;;;;;5.65;0.43;;;5.60;99.90;;;;;;5354293;26;20009;-82
2024/04/21 07:11:13;;;;;;;5.35;0.30;;;5.70;99.90;;;;;;5364388;26;20448;-78
2024/04/21 07:13:39;;;;;;;3.40;0.30;;;5.80;99.90;;;;;;5359343;26;20054;-81
2024/04/21 07:16:05;;;;;;;0.52;0.10;;;5.90;99.90;;;;;;5370867;26;20353;-80
2024/04/21 07:18:30;;;;;;;1.35;0.30;;;6.10;99.90;;;;;;5378171;26;20000;-81
2024/04/21 07:20:56;;;;;;;2.65;0.20;;;6.10;99.90;;;;;;5378758;26;20019;-81
2024/04/21 07:23:21;;;;;;;3.80;0.40;;;6.10;99.90;;;;;;5378809;26;20004;-80
2024/04/21 07:25:48;;;;;;;3.63;0.30;;;6.00;99.90;;;;;;5377559;26;20004;-80
2024/04/21 07:28:14;;;;;;;4.40;0.30;;;6.00;99.90;;;;;;5378209;26;20008;-80
2024/04/21 07:30:40;;;;;;;1.83;0.30;;;6.00;99.90;;;;;;5371878;26;20012;-80
2024/04/21 07:33:05;;;;;;;4.50;0.30;;;5.90;99.90;;;;;;5371650;26;20015;-79
2024/04/21 07:35:31;;;;;;;3.65;0.57;;;5.90;99.90;;;;;;5378386;26;20012;-80
2024/04/21 07:37:56;;;;;;;4.55;0.30;;;5.90;99.90;;;;;;5379009;26;20015;-80
2024/04/21 07:40:22;;;;;;;4.68;0.40;;;5.80;99.90;;;;;;5356636;26;19996;-80
2024/04/21 07:42:48;;;;;;;4.22;0.68;;;5.80;99.90;;;;;;5377490;26;20008;-80
2024/04/21 07:45:13;;;;;;;5.38;0.60;;;5.80;99.90;;;;;;5369789;26;19997;-80
2024/04/21 07:47:39;;;;;;;10.20;2.05;;;5.80;99.90;;;;;;5368886;26;20007;-80
2024/04/21 07:50:05;;;;;;;5.82;0.82;;;5.80;99.90;;;;;;5379620;26;20000;-80
2024/04/21 07:52:32;;;;;;;8.95;0.88;;;5.90;99.90;;;;;;5373069;26;20008;-80
2024/04/21 07:54:58;;;;;;;10.65;1.25;;;6.00;99.90;;;;;;5357289;26;20027;-79
2024/04/21 07:57:24;;;;;;;5.57;0.93;;;6.20;99.90;;;;;;5374437;26;20001;-78
2024/04/21 07:59:49;;;;;;;8.65;1.38;;;6.20;99.90;;;;;;5377034;26;20074;-78
2024/04/21 08:02:15;;;;;;;7.03;0.75;;;6.40;99.90;;;;;;5362965;26;20009;-79
2024/04/21 08:04:40;;;;;;;8.52;0.80;;;6.70;99.90;;;;;;5358797;26;20005;-78
2024/04/21 08:07:06;;;;;;;4.82;0.85;;;6.80;99.90;;;;;;5349489;26;20001;-79
2024/04/21 08:09:34;;;;;;;8.80;1.00;;;6.70;99.90;;;;;;5374348;26;20410;-78
2024/04/21 08:12:00;;;;;;;6.57;0.75;;;6.80;99.90;;;;;;5366996;26;20044;-79
2024/04/21 08:14:26;;;;;;;7.85;1.02;;;7.00;99.90;;;;;;5373445;26;20000;-78
2024/04/21 08:16:51;;;;;;;5.43;0.90;;;7.10;99.90;;;;;;5377842;26;20022;-79
2024/04/21 08:19:17;;;;;;;10.32;1.25;;;7.20;99.90;;;;;;5361107;26;20472;-79
2024/04/21 08:21:42;;;;;;;4.95;0.90;;;7.10;99.90;;;;;;5364999;26;20077;-79
2024/04/21 08:24:08;;;;;;;7.18;0.73;;;7.00;99.90;;;;;;5377487;26;20000;-79
2024/04/21 08:26:34;;;;;;;11.07;1.95;;;6.90;99.90;;;;;;5368697;26;19996;-78
2024/04/21 08:28:59;;;;;;;6.25;1.65;;;6.90;99.90;;;;;;5359836;26;20012;-78
2024/04/21 08:31:25;;;;;;;7.53;1.20;;;6.90;99.90;;;;;;5380842;26;19992;-79
2024/04/21 08:33:50;;;;;;;12.82;1.75;;;6.90;99.90;;;;;;5359389;26;20013;-79
2024/04/21 08:36:17;;;;;;;8.63;2.00;;;7.10;99.90;;;;;;5372116;26;20341;-79
2024/04/21 08:38:43;;;;;;;5.97;1.55;;;7.40;99.90;;;;;;5363884;26;20003;-79
2024/04/21 08:41:30;;;;;;;9.95;2.25;;;7.50;99.90;;;;;;5378880;26;20032;-81
2024/04/21 08:43:56;;;;;;;7.03;1.63;;;7.50;99.90;;;;;;5357753;26;20004;-81
2024/04/21 08:46:22;;;;;;;8.85;2.33;;;7.30;99.90;;;;;;5379730;26;20055;-77
2024/04/21 08:48:50;;;;;;;9.07;2.45;;;7.20;99.90;;;;;;5366315;26;20574;-78
2024/04/21 08:51:16;;;;;;;18.95;3.80;;;7.40;99.90;;;;;;5351322;26;20328;-78
2024/04/21 08:53:41;;;;;;;9.10;2.38;;;7.70;99.90;;;;;;5372470;26;20015;-78
2024/04/21 08:56:21;;;;;;;8.73;2.03;;;8.10;99.90;;;;;;5383840;26;20008;-78
2024/04/21 08:58:50;;;;;;;10.07;1.83;;;8.20;99.90;;;;;;5373992;26;20468;-78
2024/04/21 09:01:18;;;;;;;8.27;1.40;;;8.20;99.90;;;;;;5365631;26;20146;-78
2024/04/21 09:03:53;;;;;;;8.98;1.30;;;8.20;99.90;;;;;;5374696;26;20000;-78
2024/04/21 09:06:24;;;;;;;6.30;1.05;;;8.20;99.90;;;;;;5359454;26;20411;-78
2024/04/21 09:08:50;;;;;;;7.05;1.08;;;8.10;99.90;;;;;;5361501;26;20352;-78
2024/04/21 09:11:16;;;;;;;5.50;1.23;;;7.90;99.90;;;;;;5359368;26;20005;-78
2024/04/21 09:13:41;;;;;;;3.85;0.60;;;8.00;99.90;;;;;;5359651;26;20044;-78
2024/04/21 09:16:07;;;;;;;8.85;0.80;;;8.00;99.90;;;;;;5359368;26;20001;-77
2024/04/21 09:18:32;;;;;;;6.65;0.65;;;8.20;99.90;;;;;;5355040;26;20010;-78
2024/04/21 09:20:58;;;;;;;7.28;0.55;;;8.50;99.90;;;;;;5382413;26;20004;-78
2024/04/21 09:23:25;;;;;;;9.50;1.10;;;8.70;99.90;;;;;;5372897;26;19997;-78
2024/04/21 09:25:50;;;;;;;7.32;0.50;;;8.70;99.90;;;;;;5368100;26;20474;-78
2024/04/21 09:28:16;;;;;;;8.68;0.93;;;8.70;99.90;;;;;;5380061;26;20008;-78
2024/04/21 09:30:41;;;;;;;8.00;1.42;;;8.50;99.90;;;;;;5372337;26;20015;-78
2024/04/21 09:33:08;;;;;;;9.73;1.10;;;8.50;99.90;;;;;;5358706;26;20341;-78
2024/04/21 09:35:36;;;;;;;3.80;0.60;;;8.60;99.90;;;;;;5375950;26;20012;-78
2024/04/21 09:38:02;;;;;;;7.13;0.50;;;8.60;99.90;;;;;;5373212;26;20012;-77
2024/04/21 09:40:28;;;;;;;4.47;0.52;;;8.50;99.90;;;;;;5349497;26;20040;-78
2024/04/21 09:42:54;;;;;;;5.90;0.52;;;8.60;99.90;;;;;;5381665;26;20433;-78
2024/04/21 09:45:20;;;;;;;4.43;0.60;;;8.70;99.90;;;;;;5378626;26;20089;-78
2024/04/21 09:47:46;;;;;;;5.13;0.70;;;8.60;99.90;;;;;;5379925;26;20004;-78
2024/04/21 09:50:12;;;;;;;6.15;0.50;;;8.50;99.90;;;;;;5374137;26;20036;-78
2024/04/21 09:52:38;;;;;;;8.55;1.15;;;8.50;99.90;;;;;;5361871;26;20444;-78
2024/04/21 09:55:05;;;;;;;5.72;0.80;;;8.50;99.90;;;;;;5381533;26;20444;-79
2024/04/21 09:57:33;;;;;;;3.17;0.70;;;8.40;99.90;;;;;;5370493;26;20078;-78
2024/04/21 10:00:04;;;;;;;4.68;0.80;;;8.40;99.90;;;;;;5367189;26;20007;-78
2024/04/21 10:02:36;;;;;;;7.47;1.33;;;8.60;99.90;;;;;;5350186;26;20011;-78
2024/04/21 10:05:10;;;;;;;3.72;0.90;;;8.80;99.90;;;;;;5378932;26;19996;-78
2024/04/21 10:07:37;;;;;;;4.93;0.95;;;8.90;99.90;;;;;;5376319;26;20461;-78
2024/04/21 10:10:11;;;;;;;3.63;0.95;;;9.10;99.90;;;;;;5380716;26;20047;-78
2024/04/21 10:12:38;;;;;;;4.13;1.08;;;9.20;99.90;;;;;;5363215;26;19996;-78
2024/04/21 10:15:05;;;;;;;5.10;0.82;;;9.00;99.90;;;;;;5356415;26;20011;-80
2024/04/21 10:17:32;;;;;;;11.07;3.08;;;9.10;99.90;;;;;;5369972;26;19997;-80
2024/04/21 10:20:05;;;;;;;4.85;0.80;;;9.20;99.90;;;;;;5361273;26;20476;-80
2024/04/21 10:22:35;;;;;;;4.35;0.90;;;9.40;99.90;;;;;;5356876;26;20346;-80
2024/04/21 10:25:04;;;;;;;3.58;0.95;;;9.60;99.90;;;;;;5347519;26;19997;-80
2024/04/21 10:27:30;;;;;;;2.92;0.90;;;9.70;99.90;;;;;;5358049;26;20032;-81
2024/04/21 10:29:57;;;;;;;2.30;0.65;;;10.00;99.90;;;;;;5351442;26;20019;-79
2024/04/21 10:32:26;;;;;;;3.85;0.90;;;10.40;99.90;;;;;;5369992;26;20004;-79
2024/04/21 10:34:52;;;;;;;3.42;1.30;;;10.60;99.90;;;;;;5381121;26;20163;-80
2024/04/21 10:37:25;;;;;;;2.97;0.70;;;10.70;99.90;;;;;;5380455;26;20073;-79
2024/04/21 10:39:58;;;;;;;3.45;0.93;;;11.00;99.90;;;;;;5367836;26;20437;-79
2024/04/21 10:42:24;;;;;;;3.10;0.93;;;11.00;99.90;;;;;;5358032;26;20011;-79
2024/04/21 10:44:50;;;;;;;2.45;0.77;;;11.00;99.90;;;;;;5352253;26;20013;-79
2024/04/21 10:47:16;;;;;;;2.88;1.25;;;10.80;99.90;;;;;;5351308;26;20015;-78
2024/04/21 10:49:42;;;;;;;2.85;0.80;;;10.90;99.90;;;;;;5375815;26;20016;-79
2024/04/21 10:52:08;;;;;;;4.28;0.95;;;11.10;99.90;;;;;;5365972;26;20001;-78
2024/04/21 10:54:34;;;;;;;4.25;0.80;;;11.10;99.90;;;;;;5368512;26;20031;-79
2024/04/21 10:57:03;;;;;;;2.33;0.63;;;10.80;99.90;;;;;;5346427;26;20546;-78
2024/04/21 10:59:30;;;;;;;3.33;0.77;;;10.40;99.90;;;;;;5349976;26;20020;-78
2024/04/21 11:01:56;;;;;;;3.95;0.73;;;10.10;99.90;;;;;;5377515;26;20000;-79
2024/04/21 11:04:21;;;;;;;1.95;0.82;;;9.90;99.90;;;;;;5369789;26;20005;-78
2024/04/21 11:06:47;;;;;;;3.15;0.85;;;10.10;99.90;;;;;;5365992;26;20519;-78
2024/04/21 11:09:12;;;;;;;3.75;1.00;;;10.10;99.90;;;;;;5378952;26;20081;-79
2024/04/21 11:11:39;;;;;;;4.25;1.10;;;10.30;99.90;;;;;;5378415;26;19993;-79
2024/04/21 11:14:04;;;;;;;3.75;1.00;;;10.50;99.90;;;;;;5346167;26;20017;-79
2024/04/21 11:16:30;;;;;;;3.55;1.08;;;10.50;99.90;;;;;;5357606;26;20463;-78
2024/04/21 11:18:59;;;;;;;2.25;0.88;;;10.60;99.90;;;;;;5364335;26;20007;-79
2024/04/21 11:21:25;;;;;;;2.22;1.10;;;10.70;99.90;;;;;;5343159;26;20036;-79
2024/04/21 11:23:51;;;;;;;2.83;0.90;;;10.80;99.90;;;;;;5371389;26;20012;-79
2024/04/21 11:26:17;;;;;;;2.42;0.90;;;11.00;99.90;;;;;;5367936;26;20460;-79
2024/04/21 11:28:43;;;;;;;1.73;1.00;;;11.00;99.90;;;;;;5365315;26;20502;-79
2024/04/21 11:31:09;;;;;;;3.45;1.00;;;11.20;99.90;;;;;;5372837;26;20000;-79
2024/04/21 11:33:35;;;;;;;2.55;0.90;;;11.20;99.90;;;;;;5368861;26;20027;-78
2024/04/21 11:36:03;;;;;;;3.63;0.88;;;11.20;99.90;;;;;;5354300;26;20073;-79
2024/04/21 11:38:30;;;;;;;2.65;1.10;;;11.30;99.90;;;;;;5364284;26;20009;-79
2024/04/21 11:40:56;;;;;;;2.28;1.20;;;11.40;99.90;;;;;;5369928;26;20043;-79
2024/04/21 11:43:21;;;;;;;2.35;0.90;;;11.60;99.90;;;;;;5355232;26;20500;-80
2024/04/21 11:45:47;;;;;;;3.13;0.77;;;11.60;99.90;;;;;;5377667;26;19999;-79
2024/04/21 11:48:13;;;;;;;1.52;0.77;;;11.80;99.90;;;;;;5362312;26;20000;-79
2024/04/21 11:50:39;;;;;;;3.45;1.25;;;11.90;99.90;;;;;;5370636;26;20011;-78
2024/04/21 11:53:05;;;;;;;2.90;1.15;;;12.10;99.90;;;;;;5360356;26;20445;-78
2024/04/21 11:55:30;;;;;;;2.38;1.23;;;12.40;99.90;;;;;;5384742;26;19996;-78
2024/04/21 11:57:56;;;;;;;2.90;1.00;;;12.50;99.90;;;;;;5407950;26;19999;-79
2024/04/21 12:00:23;;;;;;;3.08;1.20;;;12.30;99.90;;;;;;5370841;26;20028;-79
2024/04/21 12:02:49;;;;;;;2.10;0.90;;;12.10;99.90;;;;;;5375089;26;20082;-79
2024/04/21 12:05:16;;;;;;;2.20;0.93;;;12.20;99.90;;;;;;5387286;26;20018;-77
2024/04/21 12:07:41;;;;;;;1.80;1.00;;;12.50;99.90;;;;;;5397488;26;20005;-79
2024/04/21 12:10:07;;;;;;;2.20;1.08;;;12.70;99.90;;;;;;5389144;26;20004;-79
2024/04/21 12:12:32;;;;;;;2.63;0.80;;;12.60;99.90;;;;;;5382738;26;20024;-79
2024/04/21 12:14:58;;;;;;;2.13;0.80;;;12.50;99.90;;;;;;5394194;26;20059;-79
2024/04/21 12:17:24;;;;;;;1.20;0.55;;;12.50;99.90;;;;;;5388098;26;20015;-79
2024/04/21 12:19:49;;;;;;;1.67;0.60;;;12.40;99.90;;;;;;5377736;26;20000;-80
2024/04/21 12:22:15;;;;;;;1.60;0.77;;;12.20;99.90;;;;;;5381089;26;20019;-79
2024/04/21 12:24:41;;;;;;;1.65;0.75;;;12.00;99.60;;;;;;5378420;26;20459;-79
2024/04/21 12:27:07;;;;;;;2.03;0.65;;;11.70;99.90;;;;;;5377838;26;20341;-79
2024/04/21 12:29:33;;;;;;;2.22;0.70;;;11.50;99.90;;;;;;5382239;26;20004;-79
2024/04/21 12:31:58;;;;;;;1.95;0.75;;;11.30;99.90;;;;;;5369094;26;20424;-79
2024/04/21 12:34:24;;;;;;;5.50;0.80;;;11.10;99.90;;;;;;5377203;26;20015;-79
2024/04/21 12:36:50;;;;;;;1.38;0.60;;;11.10;99.90;;;;;;5365456;26;19996;-79
2024/04/21 12:39:15;;;;;;;2.35;0.90;;;11.20;99.90;;;;;;5378088;26;20000;-78
2024/04/21 12:41:41;;;;;;;3.70;0.75;;;11.20;99.90;;;;;;5355947;26;20341;-78
2024/04/21 12:44:06;;;;;;;2.55;0.80;;;11.40;99.90;;;;;;5378318;26;20008;-79
2024/04/21 12:46:32;;;;;;;2.40;0.90;;;11.80;99.90;;;;;;5372890;26;20456;-79
2024/04/21 12:48:59;;;;;;;1.48;0.60;;;12.10;99.90;;;;;;5380365;26;20059;-79